createdAt,value
2022-09-23T00:01:50.760Z,102029.78
2022-09-23T00:05:29.070Z,102026.42
2022-09-23T00:09:04.368Z,102019.06
2022-09-23T00:12:43.333Z,102019.75
2022-09-23T00:16:26.439Z,102019.91
2022-09-23T00:19:55.742Z,102025.52
2022-09-23T00:23:32.307Z,102023.58
2022-09-23T00:27:08.154Z,102023.23
2022-09-23T00:30:45.301Z,102017.95
2022-09-23T00:34:21.718Z,102018.83
2022-09-23T00:37:58.796Z,102009.84
2022-09-23T00:41:54.328Z,102008.45
2022-09-23T00:45:12.452Z,102010.15
2022-09-23T00:48:55.946Z,102005.39
2022-09-23T00:52:26.360Z,102000.89
2022-09-23T00:56:07.501Z,101998.91
2022-09-23T00:59:39.898Z,101996.22
2022-09-23T01:03:18.509Z,101998.70
2022-09-23T01:06:53.128Z,101996.94
2022-09-23T01:10:45.522Z,101990.83
2022-09-23T01:14:34.634Z,101992.81
2022-09-23T01:18:14.186Z,101992.43
2022-09-23T01:21:45.514Z,101989.58
2022-09-23T01:25:22.337Z,101987.91
2022-09-23T01:28:52.611Z,101985.61
2022-09-23T01:32:35.825Z,101986.98
2022-09-23T01:36:24.243Z,101982.77
2022-09-23T01:39:33.697Z,101984.30
2022-09-23T01:43:16.399Z,101980.77
2022-09-23T01:46:49.451Z,101977.23
2022-09-23T01:50:54.100Z,101975.85
2022-09-23T01:54:11.653Z,101981.97
2022-09-23T01:57:46.095Z,101980.39
2022-09-23T02:01:19.348Z,101978.80
2022-09-23T02:05:09.841Z,101975.97
2022-09-23T02:08:31.759Z,101970.30
2022-09-23T02:12:09.150Z,101965.58
2022-09-23T02:15:45.202Z,101962.04
2022-09-23T02:19:18.863Z,101963.27
2022-09-23T02:23:03.440Z,101956.02
2022-09-23T02:26:29.660Z,101955.30
2022-09-23T02:30:12.968Z,101952.95
2022-09-23T02:37:57.129Z,101950.96
2022-09-23T02:41:02.520Z,101945.55
2022-09-23T02:44:33.568Z,101945.41
2022-09-23T02:48:18.968Z,101943.00
2022-09-23T02:51:49.219Z,101940.23
2022-09-23T02:55:25.653Z,101938.04
2022-09-23T02:59:01.142Z,101941.19
2022-09-23T03:03:01.650Z,101942.25
2022-09-23T03:06:40.246Z,101942.42
2022-09-23T03:10:25.131Z,101938.73
2022-09-23T03:13:55.144Z,101936.48
2022-09-23T03:17:20.280Z,101933.00
2022-09-23T03:20:49.638Z,101932.55
2022-09-23T03:24:25.012Z,101924.52
2022-09-23T03:28:01.063Z,101922.95
2022-09-23T03:31:37.485Z,101922.45
2022-09-23T03:35:15.383Z,101921.30
2022-09-23T03:42:30.249Z,101916.16
2022-09-23T03:46:03.118Z,101909.48
2022-09-23T03:49:42.588Z,101908.27
2022-09-23T03:53:18.280Z,101902.88
2022-09-23T03:56:52.930Z,101901.84
2022-09-23T04:00:29.930Z,101899.06
2022-09-23T04:04:06.599Z,101900.88
2022-09-23T04:07:43.238Z,101901.06
2022-09-23T04:11:20.321Z,101894.02
2022-09-23T04:14:56.875Z,101896.45
2022-09-23T04:18:33.622Z,101892.58
2022-09-23T04:22:11.081Z,101888.21
2022-09-23T04:25:48.667Z,101884.38
2022-09-23T04:29:25.590Z,101886.29
2022-09-23T04:33:03.464Z,101884.89
2022-09-23T04:36:40.308Z,101882.96
2022-09-23T04:40:14.631Z,101873.98
2022-09-23T04:43:51.417Z,101875.56
2022-09-23T04:47:28.425Z,101876.27
2022-09-23T04:51:12.309Z,101873.45
2022-09-23T04:54:41.854Z,101872.02
2022-09-23T04:58:18.812Z,101871.63
2022-09-23T05:01:55.853Z,101866.73
2022-09-23T05:05:32.380Z,101870.54
2022-09-23T05:09:09.453Z,101869.65
2022-09-23T05:12:45.733Z,101871.91
2022-09-23T05:16:23.599Z,101866.65
2022-09-23T05:19:59.819Z,101864.55
2022-09-23T05:23:36.595Z,101871.08
2022-09-23T05:27:12.923Z,101870.89
2022-09-23T05:30:49.567Z,101867.85
2022-09-23T05:34:26.843Z,101872.35
2022-09-23T05:38:03.464Z,101872.11
2022-09-23T05:41:42.312Z,101875.27
2022-09-23T05:45:20.917Z,101873.81
2022-09-23T05:48:57.616Z,101876.02
2022-09-23T05:52:31.619Z,101869.98
2022-09-23T05:56:08.285Z,101869.61
2022-09-23T05:59:47.929Z,101872.40
2022-09-23T06:03:21.197Z,101868.29
2022-09-23T06:10:39.212Z,101873.53
2022-09-23T06:14:14.884Z,101871.59
2022-09-23T06:17:50.814Z,101867.36
2022-09-23T06:21:24.773Z,101860.84
2022-09-23T06:25:01.397Z,101858.78
2022-09-23T06:28:40.604Z,101849.31
2022-09-23T06:32:15.044Z,101853.96
2022-09-23T06:36:00.044Z,101852.98
2022-09-23T06:39:30.114Z,101853.39
2022-09-23T06:43:05.539Z,101847.80
2022-09-23T06:46:42.681Z,101849.51
2022-09-23T06:50:19.117Z,101847.33
2022-09-23T06:53:56.509Z,101850.28
2022-09-23T06:57:33.659Z,101855.05
2022-09-23T07:01:18.244Z,101854.80
2022-09-23T07:04:46.093Z,101857.36
2022-09-23T07:08:24.022Z,101859.55
2022-09-23T07:11:59.810Z,101853.30
2022-09-23T07:15:36.835Z,101855.91
2022-09-23T07:19:13.761Z,101856.46
2022-09-23T07:22:52.497Z,101853.69
2022-09-23T07:26:27.052Z,101854.22
2022-09-23T07:30:04.235Z,101854.29
2022-09-23T07:33:44.447Z,101852.95
2022-09-23T07:37:18.924Z,101858.33
2022-09-23T07:40:54.207Z,101861.73
2022-09-23T07:44:32.141Z,101865.53
2022-09-23T07:51:48.948Z,101860.20
2022-09-23T07:55:21.425Z,101860.28
2022-09-23T07:59:01.943Z,101859.75
2022-09-23T08:02:35.423Z,101861.36
2022-09-23T08:06:13.726Z,101860.88
2022-09-23T08:09:48.725Z,101862.61
2022-09-23T08:13:25.329Z,101862.39
2022-09-23T08:17:02.205Z,101863.58
2022-09-23T08:20:47.138Z,101862.17
2022-09-23T08:24:18.721Z,101858.42
2022-09-23T08:27:52.624Z,101859.62
2022-09-23T08:31:30.005Z,101859.96
2022-09-23T08:35:06.712Z,101858.59
2022-09-23T08:42:30.337Z,101863.45
2022-09-23T08:46:02.999Z,101861.72
2022-09-23T08:49:41.765Z,101859.30
2022-09-23T08:53:35.882Z,101859.34
2022-09-23T08:56:52.474Z,101858.33
2022-09-23T09:00:33.431Z,101857.32
2022-09-23T09:04:03.197Z,101849.26
2022-09-23T09:07:40.743Z,101852.11
2022-09-23T09:11:15.638Z,101851.61
2022-09-23T09:15:08.141Z,101849.20
2022-09-23T09:18:31.480Z,101851.48
2022-09-23T09:22:12.230Z,101852.20
2022-09-23T09:26:01.573Z,101848.52
2022-09-23T09:29:41.579Z,101846.63
2022-09-23T09:33:07.021Z,101846.84
2022-09-23T09:36:50.215Z,101846.73
2022-09-23T09:40:20.549Z,101846.20
2022-09-23T09:43:57.898Z,101845.01
2022-09-23T09:47:53.261Z,101841.17
2022-09-23T09:51:27.811Z,101839.64
2022-09-23T09:54:43.910Z,101839.66
2022-09-23T09:58:19.901Z,101839.70
2022-09-23T10:02:24.884Z,101838.98
2022-09-23T10:05:45.074Z,101838.80
2022-09-23T10:09:19.573Z,101833.84
2022-09-23T10:13:21.203Z,101828.57
2022-09-23T10:17:24.628Z,101824.48
2022-09-23T10:21:17.868Z,101818.65
2022-09-23T10:24:39.154Z,101817.95
2022-09-23T10:28:38.955Z,101818.48
2022-09-23T10:31:47.776Z,101819.70
2022-09-23T10:35:26.739Z,101818.82
2022-09-23T10:39:22.532Z,101815.81
2022-09-23T10:43:37.290Z,101815.09
2022-09-23T10:46:39.799Z,101810.68
2022-09-23T10:50:47.116Z,101811.04
2022-09-23T10:53:49.752Z,101813.70
2022-09-23T10:57:44.986Z,101815.13
2022-09-23T11:01:44.984Z,101806.30
2022-09-23T11:05:11.793Z,101807.18
2022-09-23T11:08:44.047Z,101802.75
2022-09-23T11:12:47.326Z,101798.50
2022-09-23T11:16:14.453Z,101797.23
2022-09-23T11:19:34.252Z,101794.60
2022-09-23T11:23:19.066Z,101794.06
2022-09-23T11:27:12.441Z,101791.95
2022-09-23T11:30:20.635Z,101788.09
2022-09-23T11:33:58.128Z,101786.68
2022-09-23T11:37:36.824Z,101781.93
2022-09-23T11:41:36.660Z,101780.36
2022-09-23T11:44:58.743Z,101776.65
2022-09-23T11:48:37.716Z,101768.16
2022-09-23T11:52:11.112Z,101772.74
2022-09-23T11:55:57.119Z,101764.10
2022-09-23T11:59:39.395Z,101765.87
2022-09-23T12:03:18.318Z,101763.76
2022-09-23T12:06:41.599Z,101764.28
2022-09-23T12:10:08.928Z,101763.57
2022-09-23T12:14:12.536Z,101764.80
2022-09-23T12:17:27.701Z,101763.23
2022-09-23T12:21:53.049Z,101763.03
2022-09-23T12:25:33.624Z,101753.66
2022-09-23T12:28:50.976Z,101757.19
2022-09-23T12:32:25.061Z,101754.71
2022-09-23T12:36:10.197Z,101751.19
2022-09-23T12:39:40.054Z,101751.02
2022-09-23T12:43:35.012Z,101751.02
2022-09-23T12:47:48.237Z,101751.04
2022-09-23T12:51:27.203Z,101749.61
2022-09-23T12:55:33.649Z,101748.55
2022-09-23T12:58:57.036Z,101751.21
2022-09-23T13:02:37.691Z,101748.39
2022-09-23T13:06:17.171Z,101743.45
2022-09-23T13:09:31.997Z,101745.92
2022-09-23T13:13:07.441Z,101739.92
2022-09-23T13:16:45.762Z,101737.64
2022-09-23T13:20:22.362Z,101733.40
2022-09-23T13:24:18.834Z,101730.76
2022-09-23T13:27:34.331Z,101722.64
2022-09-23T13:31:17.330Z,101718.23
2022-09-23T13:34:58.950Z,101717.01
2022-09-23T13:38:26.411Z,101711.02
2022-09-23T13:42:06.039Z,101708.38
2022-09-23T13:45:43.328Z,101702.71
2022-09-23T13:49:37.549Z,101702.73
2022-09-23T13:53:01.540Z,101699.21
2022-09-23T13:56:30.334Z,101698.16
2022-09-23T14:00:21.304Z,101693.04
2022-09-23T14:03:41.154Z,101689.51
2022-09-23T14:07:19.693Z,101687.75
2022-09-23T14:10:55.846Z,101685.47
2022-09-23T14:14:31.831Z,101683.17
2022-09-23T14:18:08.750Z,101689.35
2022-09-23T14:21:49.460Z,101681.41
2022-09-23T14:25:21.930Z,101681.75
2022-09-23T14:28:58.471Z,101681.59
2022-09-23T14:32:35.603Z,101674.71
2022-09-23T14:36:35.229Z,101671.54
2022-09-23T14:39:54.539Z,101669.44
2022-09-23T14:43:28.671Z,101669.79
2022-09-23T14:47:02.201Z,101666.63
2022-09-23T14:50:43.676Z,101661.34
2022-09-23T14:54:40.692Z,101661.86
2022-09-23T15:08:38.225Z,101656.41
2022-09-23T15:12:31.993Z,101654.29
2022-09-23T15:15:33.683Z,101650.94
2022-09-23T15:19:18.566Z,101650.77
2022-09-23T15:22:48.725Z,101644.77
2022-09-23T15:26:23.297Z,101642.66
2022-09-23T15:30:15.710Z,101638.77
2022-09-23T15:33:35.947Z,101637.90
2022-09-23T15:37:15.366Z,101636.14
2022-09-23T15:40:49.587Z,101634.20
2022-09-23T15:44:29.915Z,101628.73
2022-09-23T15:48:32.080Z,101632.79
2022-09-23T15:51:39.713Z,101627.67
2022-09-23T15:55:23.805Z,101625.73
2022-09-23T15:58:53.617Z,101627.15
2022-09-23T16:02:32.784Z,101625.38
2022-09-23T16:06:13.580Z,101624.16
2022-09-23T16:09:43.615Z,101628.56
2022-09-23T16:13:20.324Z,101625.02
2022-09-23T16:16:57.848Z,101627.85
2022-09-23T16:20:38.103Z,101627.15
2022-09-23T16:24:19.011Z,101620.63
2022-09-23T16:27:50.260Z,101623.08
2022-09-23T16:31:26.968Z,101617.95
2022-09-23T16:35:01.316Z,101619.89
2022-09-23T16:39:01.373Z,101622.71
2022-09-23T16:42:14.783Z,101625.35
2022-09-23T16:45:51.662Z,101623.94
2022-09-23T16:49:28.896Z,101621.64
2022-09-23T16:53:05.112Z,101622.86
2022-09-23T16:56:44.556Z,101627.80
2022-09-23T17:00:37.634Z,101629.57
2022-09-23T17:03:55.421Z,101629.05
2022-09-23T17:07:32.543Z,101628.69
2022-09-23T17:11:11.097Z,101622.69
2022-09-23T17:14:45.940Z,101615.30
2022-09-23T17:18:22.903Z,101616.19
2022-09-23T17:21:59.685Z,101612.83
2022-09-23T17:25:36.312Z,101610.71
2022-09-23T17:29:13.925Z,101613.70
2022-09-23T17:32:49.872Z,101611.23
2022-09-23T17:36:27.479Z,101612.80
2022-09-23T17:40:06.182Z,101614.21
2022-09-23T17:43:40.887Z,101615.45
2022-09-23T17:47:16.974Z,101613.17
2022-09-23T17:51:03.412Z,101614.58
2022-09-23T17:54:32.190Z,101610.70
2022-09-23T17:58:07.331Z,101613.52
2022-09-23T18:01:44.214Z,101614.40
2022-09-23T18:05:22.374Z,101615.81
2022-09-23T18:09:01.467Z,101615.45
2022-09-23T18:12:34.583Z,101614.56
2022-09-23T18:16:11.726Z,101616.69
2022-09-23T18:19:49.552Z,101614.92
2022-09-23T18:23:28.043Z,101613.69
2022-09-23T18:27:02.170Z,101608.92
2022-09-23T18:30:38.539Z,101607.16
2022-09-23T18:34:16.887Z,101609.80
2022-09-23T18:37:52.199Z,101611.38
2022-09-23T18:41:29.197Z,101608.89
2022-09-23T18:45:05.747Z,101606.94
2022-09-23T18:49:23.499Z,101605.52
2022-09-23T18:52:41.752Z,101606.39
2022-09-23T18:56:21.280Z,101606.20
2022-09-23T18:59:55.622Z,101608.29
2022-09-23T19:03:56.633Z,101608.29
2022-09-23T19:07:32.293Z,101605.30
2022-09-23T19:11:12.012Z,101610.92
2022-09-23T19:14:45.892Z,101606.34
2022-09-23T19:18:22.439Z,101605.80
2022-09-23T19:21:59.353Z,101607.73
2022-09-23T19:25:37.080Z,101606.33
2022-09-23T19:29:19.785Z,101607.52
2022-09-23T19:32:49.933Z,101602.77
2022-09-23T19:36:47.372Z,101603.63
2022-09-23T19:40:03.364Z,101600.98
2022-09-23T19:43:39.886Z,101600.27
2022-09-23T19:47:17.743Z,101600.80
2022-09-23T19:50:53.652Z,101597.45
2022-09-23T19:54:30.736Z,101600.42
2022-09-23T19:58:07.785Z,101600.07
2022-09-23T20:01:44.295Z,101596.17
2022-09-23T20:05:23.532Z,101595.98
2022-09-23T20:08:59.482Z,101588.05
2022-09-23T20:12:34.700Z,101587.51
2022-09-23T20:16:12.304Z,101588.04
2022-09-23T20:19:47.974Z,101586.27
2022-09-23T20:23:25.012Z,101582.58
2022-09-23T20:27:13.907Z,101580.09
2022-09-23T20:30:39.520Z,101577.62
2022-09-23T20:34:15.260Z,101580.06
2022-09-23T20:38:28.714Z,101573.89
2022-09-23T20:42:07.118Z,101573.86
2022-09-23T20:45:50.551Z,101574.05
2022-09-23T20:49:19.833Z,101574.92
2022-09-23T20:52:56.661Z,101569.96
2022-09-23T20:56:32.252Z,101570.48
2022-09-23T21:00:09.358Z,101566.23
2022-09-23T21:03:48.193Z,101564.83
2022-09-23T21:07:24.171Z,101565.54
2022-09-23T21:11:02.780Z,101563.59
2022-09-23T21:14:36.444Z,101569.89
2022-09-23T21:18:16.265Z,101570.58
2022-09-23T21:21:49.773Z,101570.54
2022-09-23T21:25:28.402Z,101567.34
2022-09-23T21:29:05.618Z,101565.92
2022-09-23T21:32:40.302Z,101568.88
2022-09-23T21:36:16.911Z,101564.45
2022-09-23T21:40:12.395Z,101565.28
2022-09-23T21:43:34.292Z,101565.77
2022-09-23T21:47:07.524Z,101566.66
2022-09-23T21:50:44.290Z,101566.13
2022-09-23T21:54:20.684Z,101565.60
2022-09-23T21:57:57.772Z,101558.91
2022-09-23T22:01:38.446Z,101560.48
2022-09-23T22:05:11.281Z,101561.35
2022-09-23T22:08:50.022Z,101560.46
2022-09-23T22:12:25.010Z,101562.56
2022-09-23T22:16:06.406Z,101556.77
2022-09-23T22:19:45.895Z,101563.77
2022-09-23T22:23:15.342Z,101558.48
2022-09-23T22:26:52.242Z,101557.40
2022-09-23T22:30:47.242Z,101557.54
2022-09-23T22:34:06.575Z,101559.11
2022-09-23T22:37:43.032Z,101558.91
2022-09-23T22:41:22.619Z,101555.02
2022-09-23T22:44:56.185Z,101558.18
2022-09-23T22:48:33.490Z,101554.48
2022-09-23T22:52:11.401Z,101552.02
2022-09-23T22:55:57.821Z,101552.72
2022-09-23T22:59:23.465Z,101549.20
2022-09-23T23:03:01.337Z,101545.88
2022-09-23T23:06:37.342Z,101541.84
2022-09-23T23:10:14.519Z,101541.84
2022-09-23T23:13:51.152Z,101547.08
2022-09-23T23:17:27.639Z,101547.23
2022-09-23T23:21:14.225Z,101547.08
2022-09-23T23:24:40.798Z,101545.33
2022-09-23T23:28:17.762Z,101542.35
2022-09-23T23:31:54.969Z,101539.04
2022-09-23T23:35:31.467Z,101533.97
2022-09-23T23:39:08.629Z,101529.95
2022-09-23T23:42:47.301Z,101527.16
2022-09-23T23:46:26.682Z,101529.11
2022-09-23T23:49:58.807Z,101523.52
2022-09-23T23:53:38.780Z,101520.17
2022-09-23T23:57:12.516Z,101518.23
